createdAt,value
2016-11-14T05:08:50.914Z,-3.15
2016-11-14T05:09:31.393Z,-3.13
2016-11-14T05:10:11.864Z,-3.12
2016-11-14T05:10:52.352Z,-3.16
2016-11-14T05:11:32.792Z,-3.16
2016-11-14T05:12:13.322Z,-3.16
2016-11-14T05:12:53.849Z,-3.15
2016-11-14T05:13:34.310Z,-3.15
2016-11-14T05:14:14.792Z,-3.2
2016-11-14T05:14:55.422Z,-3.22
2016-11-14T05:15:35.912Z,-3.17
2016-11-14T05:16:16.393Z,-3.17
2016-11-14T05:16:57.247Z,-3.3
2016-11-14T05:17:37.687Z,-3.25
2016-11-14T05:18:18.236Z,-3.35
2016-11-14T05:18:58.704Z,-3.22
2016-11-14T05:19:39.166Z,-3.22
2016-11-14T05:20:19.677Z,-3.28
2016-11-14T05:21:00.233Z,-3.2
2016-11-14T05:21:40.978Z,-3.28
2016-11-14T05:22:21.564Z,-3.23
2016-11-14T05:23:02.050Z,-3.23
2016-11-14T05:23:42.552Z,-3.27
2016-11-14T05:24:24.420Z,-3.27
2016-11-14T05:25:04.498Z,-3.31
2016-11-14T05:25:45.518Z,-3.27
2016-11-14T05:26:25.988Z,-3.3
2016-11-14T05:27:06.517Z,-3.3
2016-11-14T05:27:46.986Z,-3.28
2016-11-14T05:28:28.237Z,-3.28
2016-11-14T05:29:08.767Z,-3.33
2016-11-14T05:29:49.229Z,-3.33
2016-11-14T05:30:29.688Z,-3.33
2016-11-14T05:31:10.178Z,-3.27
2016-11-14T05:31:50.642Z,-3.27
2016-11-14T05:32:31.360Z,-3.23
2016-11-14T05:33:11.806Z,-3.23
2016-11-14T05:33:52.544Z,-3.27
2016-11-14T05:34:33.058Z,-3.22
2016-11-14T05:35:13.532Z,-3.17
2016-11-14T05:35:54.015Z,-3.2
2016-11-14T05:36:34.497Z,-3.15
2016-11-14T05:37:14.963Z,-3.16
2016-11-14T05:37:55.448Z,-3.17
2016-11-14T05:38:35.936Z,-3.12
2016-11-14T05:39:16.424Z,-3.09
2016-11-14T05:39:56.916Z,-3.13
2016-11-14T05:40:37.360Z,-3.09
2016-11-14T05:41:17.836Z,-3.06
2016-11-14T05:41:58.461Z,-3.06
2016-11-14T05:42:38.932Z,-2.99
2016-11-14T05:43:19.419Z,-2.98
2016-11-14T05:43:59.895Z,-3.02
2016-11-14T05:44:40.367Z,-2.97
2016-11-14T05:45:20.854Z,-3.02
2016-11-14T05:46:01.347Z,-2.91
2016-11-14T05:46:41.814Z,-2.94
2016-11-14T05:47:22.313Z,-2.91
2016-11-14T05:48:02.795Z,-2.86
2016-11-14T05:48:43.330Z,-2.88
2016-11-14T05:49:23.810Z,-2.83
2016-11-14T05:50:04.323Z,-2.84
2016-11-14T05:50:44.770Z,-2.8
2016-11-14T05:51:25.233Z,-2.81
2016-11-14T05:52:05.711Z,-2.78
2016-11-14T05:52:46.163Z,-2.74
2016-11-14T05:53:26.648Z,-2.69
2016-11-14T05:54:07.108Z,-2.77
2016-11-14T05:54:47.555Z,-2.7
2016-11-14T05:55:28.080Z,-2.74
2016-11-14T05:56:08.554Z,-2.69
2016-11-14T05:56:49.027Z,-2.73
2016-11-14T05:57:29.492Z,-2.69
2016-11-14T05:58:09.992Z,-2.62
2016-11-14T05:58:50.450Z,-2.65
2016-11-14T05:59:30.935Z,-2.58
2016-11-14T06:00:11.408Z,-2.69
2016-11-14T06:00:51.884Z,-2.56
2016-11-14T06:01:32.370Z,-2.63
2016-11-14T06:02:12.831Z,-2.58
2016-11-14T06:02:53.342Z,-2.48
2016-11-14T06:03:33.834Z,-2.5
2016-11-14T06:04:14.372Z,-2.45
2016-11-14T06:04:54.809Z,-2.5
2016-11-14T06:05:35.280Z,-2.48
2016-11-14T06:06:15.768Z,-2.48
2016-11-14T06:06:56.267Z,-2.48
2016-11-14T06:07:36.712Z,-2.44
2016-11-14T06:08:17.223Z,-2.47
2016-11-14T06:08:57.656Z,-2.45
2016-11-14T06:09:38.187Z,-2.5
2016-11-14T06:10:18.663Z,-2.35
2016-11-14T06:10:59.135Z,-2.37
2016-11-14T06:11:39.632Z,-2.41
2016-11-14T06:12:20.079Z,-2.37
2016-11-14T06:13:00.570Z,-2.34
2016-11-14T06:13:41.058Z,-2.26
2016-11-14T06:14:21.543Z,-2.25
2016-11-14T06:15:02.075Z,-2.28
2016-11-14T06:15:42.574Z,-2.28
2016-11-14T06:16:23.071Z,-2.32
2016-11-14T06:17:03.551Z,-2.32
2016-11-14T06:17:44.027Z,-2.23
2016-11-14T06:18:24.515Z,-2.25
2016-11-14T06:19:05.024Z,-2.25
2016-11-14T06:19:45.518Z,-2.26
2016-11-14T06:20:25.971Z,-2.12
2016-11-14T06:21:06.446Z,-2.19
2016-11-14T06:21:46.962Z,-2.19
2016-11-14T06:22:27.459Z,-2.21
2016-11-14T06:23:07.935Z,-2.16
2016-11-14T06:23:48.422Z,-2.15
2016-11-14T06:24:28.906Z,-2.19
2016-11-14T06:25:09.395Z,-2.15
2016-11-14T06:25:49.849Z,-2.13
2016-11-14T06:26:30.359Z,-2.12
2016-11-14T06:27:10.842Z,-2.12
2016-11-14T06:27:51.301Z,-2.08
2016-11-14T06:28:31.799Z,-2.02
2016-11-14T06:29:12.278Z,-2.01
2016-11-14T06:29:52.754Z,-2.05
2016-11-14T06:30:33.306Z,-1.98
2016-11-14T06:31:13.804Z,-2.02
2016-11-14T06:31:54.216Z,-2.07
2016-11-14T06:32:34.704Z,-2.05
2016-11-14T06:33:15.160Z,-1.98
2016-11-14T06:33:55.657Z,-1.9
2016-11-14T06:34:36.156Z,-1.9
2016-11-14T06:35:16.621Z,-1.9
2016-11-14T06:35:57.139Z,-1.89
2016-11-14T06:36:37.601Z,-1.9
2016-11-14T06:37:18.138Z,-1.82
2016-11-14T06:37:58.634Z,-1.74
2016-11-14T06:38:39.141Z,-1.79
2016-11-14T06:39:19.583Z,-1.8
2016-11-14T06:40:00.054Z,-1.82
2016-11-14T06:40:40.513Z,-1.79
2016-11-14T06:41:21.017Z,-1.69
2016-11-14T06:42:01.493Z,-1.82
2016-11-14T06:42:41.974Z,-1.69
2016-11-14T06:43:22.493Z,-1.76
2016-11-14T06:44:03.199Z,-1.72
2016-11-14T06:44:43.681Z,-1.66
2016-11-14T06:45:24.131Z,-1.68
2016-11-14T06:46:04.647Z,-1.72
2016-11-14T06:46:45.169Z,-1.72
2016-11-14T06:47:25.612Z,-1.68
2016-11-14T06:48:06.139Z,-1.71
2016-11-14T06:48:46.647Z,-1.65
2016-11-14T06:49:27.121Z,-1.72
2016-11-14T06:50:07.649Z,-1.71
2016-11-14T06:50:48.740Z,-1.61
2016-11-14T06:51:29.211Z,-1.65
2016-11-14T06:52:09.909Z,-1.72
2016-11-14T06:52:50.451Z,-1.66
2016-11-14T06:53:30.940Z,-1.66
2016-11-14T06:54:11.456Z,-1.66
2016-11-14T06:54:51.945Z,-1.64
2016-11-14T06:55:32.445Z,-1.5
2016-11-14T06:56:13.007Z,-1.48
2016-11-14T06:56:53.559Z,-1.53
2016-11-14T06:57:34.075Z,-1.56
2016-11-14T06:58:14.610Z,-1.44
2016-11-14T06:58:55.120Z,-1.58
2016-11-14T06:59:35.620Z,-1.46
2016-11-14T07:00:16.072Z,-1.43
2016-11-14T07:02:31.789Z,-1.48
2016-11-14T07:03:15.894Z,-1.53
2016-11-14T07:03:57.307Z,-1.51
2016-11-14T07:04:37.804Z,-1.44
2016-11-14T07:05:18.351Z,-1.43
2016-11-14T07:05:58.837Z,-1.44
2016-11-14T07:06:39.409Z,-1.41
2016-11-14T07:07:19.882Z,-1.38
2016-11-14T07:08:00.354Z,-1.43
2016-11-14T07:08:40.852Z,-1.4
2016-11-14T07:09:21.324Z,-1.38
2016-11-14T07:10:01.812Z,-1.37
2016-11-14T07:10:42.264Z,-1.33
2016-11-14T07:11:22.766Z,-1.4
2016-11-14T07:12:03.265Z,-1.4
2016-11-14T07:12:43.789Z,-1.3
2016-11-14T07:13:24.274Z,-1.3
2016-11-14T07:14:04.798Z,-1.38
2016-11-14T07:14:45.447Z,-1.25
2016-11-14T07:15:25.990Z,-1.27
2016-11-14T07:16:06.527Z,-1.35
2016-11-14T07:16:46.965Z,-1.25
2016-11-14T07:17:27.441Z,-1.22
2016-11-14T07:18:07.948Z,-1.17
2016-11-14T07:18:48.478Z,-1.17
2016-11-14T07:19:29.003Z,-1.2
2016-11-14T07:20:09.518Z,-1.14
2016-11-14T07:20:49.995Z,-1.15
2016-11-14T07:21:30.516Z,-1.14
2016-11-14T07:22:11.001Z,-1.07
2016-11-14T07:22:51.493Z,-1.12
2016-11-14T07:23:32.035Z,-1.14
2016-11-14T07:24:12.421Z,-1.02
2016-11-14T07:24:52.959Z,-1.15
2016-11-14T07:25:33.450Z,-1.04
2016-11-14T07:26:13.925Z,-0.97
2016-11-14T07:26:54.491Z,-0.91
2016-11-14T07:27:35.063Z,-0.96
2016-11-14T07:28:15.556Z,-0.86
2016-11-14T07:28:56.074Z,-0.82
2016-11-14T07:29:36.592Z,-0.83
2016-11-14T07:30:17.072Z,-0.91
2016-11-14T07:30:57.630Z,-0.8
2016-11-14T07:31:38.128Z,-0.85
2016-11-14T07:32:18.603Z,-0.71
2016-11-14T07:32:59.080Z,-0.75
2016-11-14T07:33:39.543Z,-0.75
2016-11-14T07:34:20.062Z,-0.71
2016-11-14T07:35:00.615Z,-0.77
2016-11-14T07:35:41.121Z,-0.71
2016-11-14T07:36:21.689Z,-0.7
2016-11-14T07:37:04.841Z,-0.68
2016-11-14T07:37:45.534Z,-0.61
2016-11-14T07:38:26.273Z,-0.59
2016-11-14T07:39:11.086Z,-0.56
2016-11-14T07:45:44.384Z,-0.35
2016-11-14T07:46:31.313Z,-0.34
2016-11-14T07:48:53.542Z,-0.26
2016-11-14T07:49:33.584Z,-0.28
2016-11-14T07:51:12.740Z,-0.13
2016-11-14T07:51:53.046Z,-0.1
2016-11-14T07:52:33.495Z,-0.11
2016-11-14T07:53:13.992Z,-0.13
2016-11-14T07:53:54.480Z,-0.14
2016-11-14T07:54:34.958Z,-0.11
2016-11-14T07:55:15.447Z,-0.1
2016-11-14T07:55:55.898Z,0
2016-11-14T07:56:36.397Z,-0.07
2016-11-14T07:57:16.871Z,0.04
2016-11-14T07:57:57.389Z,0.05
2016-11-14T07:58:37.947Z,0.08
2016-11-14T07:59:18.676Z,0.05
2016-11-14T07:59:59.301Z,0.16
2016-11-14T08:00:39.986Z,0.21
2016-11-14T08:01:20.596Z,0.22
2016-11-14T08:02:01.263Z,0.22
2016-11-14T08:02:41.913Z,0.18
2016-11-14T08:03:22.702Z,0.25
2016-11-14T08:04:04.913Z,0.28
2016-11-14T08:04:48.623Z,0.29
2016-11-14T08:05:30.199Z,0.32
2016-11-14T08:06:10.837Z,0.37
2016-11-14T08:06:51.557Z,0.36
2016-11-14T08:07:32.290Z,0.41
2016-11-14T08:08:12.933Z,0.43
2016-11-14T08:08:53.679Z,0.44
2016-11-14T08:09:35.360Z,0.47
2016-11-14T08:10:16.090Z,0.5
2016-11-14T08:10:56.798Z,0.58
2016-11-14T08:11:37.552Z,0.59
2016-11-14T08:12:18.072Z,0.58
2016-11-14T08:12:58.596Z,0.59
2016-11-14T08:13:39.094Z,0.66
2016-11-14T08:14:19.557Z,0.55
2016-11-14T08:15:00.045Z,0.69
2016-11-14T08:15:40.551Z,0.68
2016-11-14T08:16:21.060Z,0.62
2016-11-14T08:17:01.613Z,0.6
2016-11-14T08:17:42.038Z,0.77
2016-11-14T08:18:22.502Z,0.81
2016-11-14T08:19:03.027Z,0.76
2016-11-14T08:19:43.540Z,0.81
2016-11-14T08:20:24.246Z,0.78
2016-11-14T08:21:04.715Z,0.88
2016-11-14T08:21:47.347Z,0.78
2016-11-14T08:22:27.855Z,0.87
2016-11-14T08:23:08.373Z,0.91
2016-11-14T08:23:48.898Z,0.87
2016-11-14T08:24:29.442Z,0.91
2016-11-14T08:25:09.940Z,1.02
2016-11-14T08:25:50.471Z,0.92
2016-11-14T08:26:30.972Z,0.95
2016-11-14T08:27:11.499Z,0.95
2016-11-14T08:27:51.969Z,1.05
2016-11-14T08:28:32.482Z,0.92
2016-11-14T08:29:12.974Z,1.13
2016-11-14T08:29:53.469Z,1.06
2016-11-14T08:30:33.999Z,1.12
2016-11-14T08:31:14.535Z,1.04
2016-11-14T08:31:55.087Z,1.17
2016-11-14T08:32:35.588Z,1.23
2016-11-14T08:33:16.064Z,1.17
2016-11-14T08:33:56.545Z,1.22
2016-11-14T08:34:37.043Z,1.3
2016-11-14T08:35:17.512Z,1.24
2016-11-14T08:35:58.364Z,1.34
2016-11-14T08:36:39.208Z,1.4
2016-11-14T08:37:20.416Z,1.34
2016-11-14T08:38:01.210Z,1.4
2016-11-14T08:38:41.934Z,1.35
2016-11-14T08:39:22.625Z,1.38
2016-11-14T08:40:03.101Z,1.49
2016-11-14T08:40:43.566Z,1.45
2016-11-14T08:41:24.159Z,1.45
2016-11-14T08:42:05.090Z,1.44
2016-11-14T08:42:45.538Z,1.59
2016-11-14T08:43:26.067Z,1.62
2016-11-14T08:44:06.531Z,1.62
2016-11-14T08:44:47.115Z,1.63
2016-11-14T08:45:27.604Z,1.53
2016-11-14T08:46:08.137Z,1.62
2016-11-14T08:46:48.687Z,1.67
2016-11-14T08:47:29.211Z,1.6
2016-11-14T08:48:09.693Z,1.63
2016-11-14T08:48:50.184Z,1.7
2016-11-14T08:49:30.715Z,1.67
2016-11-14T08:50:11.206Z,1.7
2016-11-14T08:52:04.299Z,1.68
2016-11-14T08:52:47.441Z,1.74
2016-11-14T08:53:28.648Z,1.66
2016-11-14T08:54:09.728Z,1.7
2016-11-14T08:54:50.624Z,1.74
2016-11-14T08:55:31.105Z,1.71
2016-11-14T08:56:11.581Z,1.73
2016-11-14T08:56:52.061Z,1.74
2016-11-14T08:57:32.560Z,1.77
2016-11-14T08:58:13.042Z,1.78
2016-11-14T08:58:53.570Z,1.76
2016-11-14T08:59:34.067Z,1.73
2016-11-14T09:00:14.528Z,1.84
2016-11-14T09:00:55.028Z,1.85
2016-11-14T09:01:35.498Z,1.89
2016-11-14T09:02:15.973Z,1.91
2016-11-14T09:02:56.468Z,1.92
2016-11-14T09:03:36.930Z,1.92
2016-11-14T09:04:17.408Z,1.89
2016-11-14T09:04:57.917Z,1.91
2016-11-14T09:05:38.443Z,1.88
2016-11-14T09:06:18.942Z,2.06
2016-11-14T09:06:59.442Z,2.06
2016-11-14T09:07:39.955Z,2.15
2016-11-14T09:08:20.435Z,2.1
2016-11-14T09:09:00.962Z,2.02
2016-11-14T09:09:41.713Z,2.06
2016-11-14T09:10:22.254Z,2.13
2016-11-14T09:11:02.833Z,2.1
2016-11-14T09:11:43.369Z,2.07
2016-11-14T09:12:23.864Z,2.06
2016-11-14T09:13:04.371Z,2.06
2016-11-14T09:13:44.864Z,2.1
2016-11-14T09:14:25.383Z,2.11
2016-11-14T09:15:05.885Z,2.17
2016-11-14T09:15:46.347Z,2.07
2016-11-14T09:16:26.810Z,2.15
2016-11-14T09:17:07.297Z,2.13
2016-11-14T09:17:47.831Z,2.08
2016-11-14T09:18:28.524Z,2.17
2016-11-14T09:19:09.055Z,2.22
2016-11-14T09:19:49.563Z,2.14
2016-11-14T09:20:30.077Z,2.24
2016-11-14T09:21:10.846Z,2.18
2016-11-14T09:21:51.349Z,2.22
2016-11-14T09:22:31.776Z,2.26
2016-11-14T09:23:12.400Z,2.25
2016-11-14T09:23:53.152Z,2.2
2016-11-14T09:24:34.255Z,2.26
2016-11-14T09:25:14.765Z,2.29
2016-11-14T09:25:55.992Z,2.31
2016-11-14T09:26:36.521Z,2.29
2016-11-14T09:27:16.980Z,2.28
2016-11-14T09:27:57.589Z,2.38
2016-11-14T09:28:38.022Z,2.33
2016-11-14T09:29:19.187Z,2.39
2016-11-14T09:29:59.658Z,2.33
2016-11-14T09:30:40.160Z,2.33
2016-11-14T09:31:20.936Z,2.35
2016-11-14T09:32:01.390Z,2.32
2016-11-14T09:32:41.967Z,2.31
2016-11-14T09:33:22.454Z,2.38
2016-11-14T09:34:02.943Z,2.36
2016-11-14T09:34:43.448Z,2.33
2016-11-14T09:35:23.964Z,2.36
2016-11-14T09:36:04.438Z,2.31
2016-11-14T09:36:44.942Z,2.36
2016-11-14T09:37:25.390Z,2.35
2016-11-14T09:38:08.597Z,2.35
2016-11-14T09:38:49.101Z,2.38
2016-11-14T09:39:29.563Z,2.35
2016-11-14T09:40:10.071Z,2.36
2016-11-14T09:40:50.739Z,2.33
2016-11-14T09:41:31.336Z,2.42
2016-11-14T09:42:11.861Z,2.38
2016-11-14T09:42:52.351Z,2.44
2016-11-14T09:43:32.849Z,2.54
2016-11-14T09:44:13.405Z,2.39
2016-11-14T09:44:53.921Z,2.38
2016-11-14T09:45:34.742Z,2.5
2016-11-14T09:46:15.259Z,2.38
2016-11-14T09:46:55.747Z,2.44
2016-11-14T09:47:36.235Z,2.53
2016-11-14T09:48:16.722Z,2.47
2016-11-14T09:48:57.185Z,2.57
2016-11-14T09:49:37.685Z,2.64
2016-11-14T09:50:18.230Z,2.6
2016-11-14T09:50:58.772Z,2.56
2016-11-14T09:51:39.289Z,2.53
2016-11-14T09:52:19.809Z,2.62
2016-11-14T09:53:00.287Z,2.67
2016-11-14T09:53:40.782Z,2.62
2016-11-14T09:54:21.254Z,2.64
2016-11-14T09:55:01.866Z,2.6
2016-11-14T09:55:44.655Z,2.69
2016-11-14T09:56:25.119Z,2.64
2016-11-14T09:57:05.601Z,2.79
2016-11-14T09:57:46.097Z,2.65
2016-11-14T09:58:26.649Z,2.68
2016-11-14T09:59:07.156Z,2.56
2016-11-14T09:59:47.675Z,2.64
2016-11-14T10:00:28.231Z,2.67
2016-11-14T10:01:10.620Z,2.71
2016-11-14T10:01:51.091Z,2.64
2016-11-14T10:02:31.603Z,2.79
2016-11-14T10:03:12.095Z,2.68
2016-11-14T10:03:54.480Z,2.67
2016-11-14T10:04:34.929Z,2.69
2016-11-14T10:05:15.438Z,2.74
2016-11-14T10:05:56.271Z,2.68
2016-11-14T10:06:36.815Z,2.79
2016-11-14T10:07:17.313Z,2.75
2016-11-14T10:07:57.809Z,2.77
2016-11-14T10:08:38.327Z,2.8
2016-11-14T10:09:19.442Z,2.75
2016-11-14T10:10:02.863Z,2.79
2016-11-14T10:10:43.628Z,2.86
2016-11-14T10:11:24.101Z,2.83
2016-11-14T10:12:04.580Z,2.89
2016-11-14T10:12:45.069Z,2.93
2016-11-14T10:13:25.568Z,2.93
2016-11-14T10:14:06.046Z,2.9
2016-11-14T10:14:46.546Z,2.82
2016-11-14T10:15:29.701Z,2.97
2016-11-14T10:16:10.213Z,2.9
2016-11-14T10:16:54.213Z,2.92
2016-11-14T10:17:34.825Z,2.97
2016-11-14T10:18:15.318Z,2.97
2016-11-14T10:18:56.370Z,2.89
2016-11-14T10:19:36.844Z,3.01
2016-11-14T10:20:17.367Z,3.03
2016-11-14T10:20:57.857Z,3.03
2016-11-14T10:21:38.370Z,3.03
2016-11-14T10:22:18.852Z,3.04
2016-11-14T10:22:59.315Z,3.05
2016-11-14T10:23:39.811Z,3.04
2016-11-14T10:24:20.292Z,3.1
2016-11-14T10:25:00.841Z,3.1
2016-11-14T10:25:41.307Z,3.13
2016-11-14T10:26:21.839Z,3.1
2016-11-14T10:28:20.003Z,3.11
2016-11-14T10:29:00.633Z,3.13
2016-11-14T10:29:40.894Z,3.19
2016-11-14T10:30:21.396Z,3.22
2016-11-14T10:31:01.947Z,3.25
2016-11-14T10:31:42.421Z,3.22
2016-11-14T10:32:22.921Z,3.16
2016-11-14T10:33:03.461Z,3.28
2016-11-14T10:33:43.925Z,3.29
2016-11-14T10:34:24.414Z,3.37
2016-11-14T10:35:04.922Z,3.29
2016-11-14T10:35:45.418Z,3.29
2016-11-14T10:36:25.966Z,3.28
2016-11-14T10:37:06.441Z,3.36
2016-11-14T10:37:46.922Z,3.37
2016-11-14T10:38:27.443Z,3.44
2016-11-14T10:39:07.937Z,3.34
2016-11-14T10:39:48.462Z,3.29
2016-11-14T10:40:28.919Z,3.4
2016-11-14T10:41:09.376Z,3.41
2016-11-14T10:41:49.856Z,3.51
2016-11-14T10:42:30.426Z,3.5
2016-11-14T10:43:11.726Z,3.5
2016-11-14T10:43:52.214Z,3.55
2016-11-14T10:44:32.732Z,3.59
2016-11-14T10:45:13.452Z,3.6
2016-11-14T10:45:53.942Z,3.58
2016-11-14T10:46:34.395Z,3.55
2016-11-14T10:47:14.889Z,3.7
2016-11-14T10:47:58.916Z,3.6
2016-11-14T10:48:49.547Z,3.73
2016-11-14T10:49:41.491Z,3.69
2016-11-14T10:50:29.954Z,3.8
2016-11-14T10:51:09.543Z,3.73
2016-11-14T10:51:49.994Z,3.78
2016-11-14T10:52:30.603Z,3.81
2016-11-14T10:53:11.331Z,3.77
2016-11-14T10:53:51.787Z,3.76
2016-11-14T10:54:32.272Z,3.84
2016-11-14T10:55:12.743Z,3.95
2016-11-14T10:57:00.637Z,3.98
2016-11-14T10:57:41.124Z,3.95
2016-11-14T10:58:21.580Z,4.04
2016-11-14T10:59:02.066Z,3.96
2016-11-14T10:59:42.552Z,3.98
2016-11-14T11:00:23.018Z,4.01
2016-11-14T11:01:03.551Z,4.08
2016-11-14T11:01:44.088Z,4.08
2016-11-14T11:02:24.602Z,4.12
2016-11-14T11:03:05.180Z,4.12
2016-11-14T11:03:45.668Z,4.2
2016-11-14T11:04:26.198Z,4.16
2016-11-14T11:05:06.673Z,4.14
2016-11-14T11:05:47.208Z,4.2
2016-11-14T11:06:29.836Z,4.19
2016-11-14T11:07:10.417Z,4.16
2016-11-14T11:07:50.895Z,4.14
2016-11-14T11:08:34.442Z,4.16
2016-11-14T11:09:14.945Z,4.19
2016-11-14T11:09:57.504Z,4.14
2016-11-14T11:10:39.556Z,4.19
2016-11-14T11:11:22.104Z,4.26
2016-11-14T11:12:05.512Z,4.19
2016-11-14T11:12:46.002Z,4.17
2016-11-14T11:13:26.476Z,4.24
2016-11-14T11:14:11.051Z,4.28
2016-11-14T11:14:52.276Z,4.31
2016-11-14T11:15:34.008Z,4.34
2016-11-14T11:16:15.581Z,4.37
2016-11-14T11:16:56.191Z,4.35
2016-11-14T11:17:36.638Z,4.38
2016-11-14T11:18:17.130Z,4.45
2016-11-14T11:18:57.616Z,4.4
2016-11-14T11:19:43.885Z,4.49
2016-11-14T11:20:27.653Z,4.42
2016-11-14T11:21:07.058Z,4.45
2016-11-14T11:21:49.590Z,4.48
2016-11-14T11:22:31.948Z,4.5
2016-11-14T11:23:17.900Z,4.49
2016-11-14T11:23:58.715Z,4.4
2016-11-14T11:24:41.997Z,4.42
2016-11-14T11:25:23.096Z,4.44
2016-11-14T11:26:05.630Z,4.48
2016-11-14T11:26:46.124Z,4.44
2016-11-14T11:27:28.063Z,4.4
2016-11-14T11:28:09.388Z,4.5
2016-11-14T11:28:49.874Z,4.45
2016-11-14T11:29:32.417Z,4.44
2016-11-14T11:30:14.789Z,4.44
2016-11-14T11:30:55.290Z,4.41
2016-11-14T11:31:38.886Z,4.48
2016-11-14T11:32:21.927Z,4.45
2016-11-14T11:33:03.345Z,4.42
2016-11-14T11:33:48.515Z,4.5
2016-11-14T11:34:33.987Z,4.35
2016-11-14T11:35:12.103Z,4.42
2016-11-14T11:35:54.812Z,4.49
2016-11-14T11:36:35.347Z,4.44
2016-11-14T11:37:17.951Z,4.44
2016-11-14T11:37:58.528Z,4.44
2016-11-14T11:38:40.717Z,4.35
2016-11-14T11:39:21.196Z,4.45
2016-11-14T11:40:06.170Z,4.48
2016-11-14T11:40:50.535Z,4.44
2016-11-14T11:41:33.792Z,4.4
2016-11-14T11:42:22.626Z,4.4
2016-11-14T11:43:04.924Z,4.42
2016-11-14T11:43:47.888Z,4.38
2016-11-14T11:44:29.192Z,4.45
2016-11-14T11:45:09.737Z,4.44
2016-11-14T11:45:50.214Z,4.44
2016-11-14T11:46:30.694Z,4.44
2016-11-14T11:47:11.175Z,4.5
2016-11-14T11:47:51.667Z,4.49
2016-11-14T11:48:32.117Z,4.53
2016-11-14T11:49:12.685Z,4.55
2016-11-14T11:49:53.464Z,4.48
2016-11-14T11:50:34.017Z,4.48
2016-11-14T11:51:14.479Z,4.48
2016-11-14T11:51:54.982Z,4.44
2016-11-14T11:52:35.485Z,4.52
2016-11-14T11:53:15.977Z,4.38
2016-11-14T11:53:56.490Z,4.45
2016-11-14T11:54:37.108Z,4.35
2016-11-14T11:55:17.668Z,4.42
2016-11-14T11:55:58.167Z,4.4
2016-11-14T11:56:38.752Z,4.4
2016-11-14T11:57:19.280Z,4.41
2016-11-14T11:57:59.736Z,4.4
2016-11-14T11:58:40.242Z,4.35
2016-11-14T11:59:20.891Z,4.37
2016-11-14T12:00:01.505Z,4.37
2016-11-14T12:00:41.975Z,4.34
2016-11-14T12:01:22.478Z,4.28
2016-11-14T12:02:02.952Z,4.32
2016-11-14T12:02:43.505Z,4.31
2016-11-14T12:03:23.979Z,4.41
2016-11-14T12:04:04.473Z,4.41
2016-11-14T12:04:45.173Z,4.38
2016-11-14T12:05:25.592Z,4.35
2016-11-14T12:06:06.082Z,4.24
2016-11-14T12:06:46.590Z,4.26
2016-11-14T12:07:27.061Z,4.28
2016-11-14T12:08:07.578Z,4.22
2016-11-14T12:08:48.032Z,4.26
2016-11-14T12:09:28.588Z,4.26
2016-11-14T12:10:09.105Z,4.37
2016-11-14T12:10:49.743Z,4.35
2016-11-14T12:11:30.240Z,4.35
2016-11-14T12:12:10.746Z,4.23
2016-11-14T12:12:51.251Z,4.37
2016-11-14T12:13:31.747Z,4.38
2016-11-14T12:14:12.219Z,4.23
2016-11-14T12:14:53.157Z,4.37
2016-11-14T12:15:33.556Z,4.4
2016-11-14T12:16:14.024Z,4.45
2016-11-14T12:16:54.493Z,4.48
2016-11-14T12:18:50.296Z,4.37
2016-11-14T12:19:31.954Z,4.41
2016-11-14T12:20:14.857Z,4.38
2016-11-14T12:20:59.723Z,4.38
2016-11-14T12:21:47.489Z,4.42
2016-11-14T12:22:28.077Z,4.35
2016-11-14T12:23:09.119Z,4.35
2016-11-14T12:23:49.684Z,4.38
2016-11-14T12:24:30.185Z,4.42
2016-11-14T12:25:10.714Z,4.38
2016-11-14T12:25:51.248Z,4.44
2016-11-14T12:26:31.723Z,4.37
2016-11-14T12:27:12.268Z,4.34
2016-11-14T12:27:52.765Z,4.37
2016-11-14T12:28:33.261Z,4.34
2016-11-14T12:29:14.287Z,4.41
2016-11-14T12:29:54.769Z,4.38
2016-11-14T12:30:35.245Z,4.26
2016-11-14T12:31:16.824Z,4.26
2016-11-14T12:31:57.320Z,4.24
2016-11-14T12:32:38.451Z,4.35
2016-11-14T12:33:19.026Z,4.24
2016-11-14T12:33:59.613Z,4.35
2016-11-14T12:34:41.820Z,4.37
2016-11-14T12:35:22.367Z,4.23
2016-11-14T12:36:04.810Z,4.32
2016-11-14T12:36:45.300Z,4.26
2016-11-14T12:37:25.798Z,4.37
2016-11-14T12:38:07.029Z,4.38
2016-11-14T12:38:48.311Z,4.37
2016-11-14T12:40:38.919Z,4.31
2016-11-14T12:41:19.239Z,4.35
2016-11-14T12:41:59.706Z,4.37
2016-11-14T12:42:40.232Z,4.37
2016-11-14T12:43:20.726Z,4.26
2016-11-14T12:44:01.246Z,4.17
2016-11-14T12:44:41.730Z,4.16
2016-11-14T12:45:22.199Z,4.19
2016-11-14T12:46:02.701Z,4.22
2016-11-14T12:46:43.243Z,4.19
2016-11-14T12:47:23.815Z,4.06
2016-11-14T12:48:04.336Z,4.19
2016-11-14T12:48:44.819Z,4.16
2016-11-14T12:49:25.278Z,4.2
2016-11-14T12:50:05.754Z,4.22
2016-11-14T12:50:46.283Z,4.17
2016-11-14T12:51:26.781Z,4.31
2016-11-14T12:52:07.295Z,4.2
2016-11-14T12:52:47.792Z,4.2
2016-11-14T12:53:28.266Z,4.22
2016-11-14T12:54:08.822Z,4.14
2016-11-14T12:54:49.297Z,4.28
2016-11-14T12:55:29.804Z,4.16
2016-11-14T12:56:10.370Z,4.23
2016-11-14T12:56:51.032Z,4.16
2016-11-14T12:57:31.527Z,4.16
2016-11-14T12:58:12.061Z,4.14
2016-11-14T12:58:52.545Z,4.14
2016-11-14T12:59:33.245Z,4.19
2016-11-14T13:00:13.827Z,4.13
2016-11-14T13:00:54.333Z,4.14
2016-11-14T13:01:34.803Z,4.19
2016-11-14T13:02:15.295Z,4.23
2016-11-14T13:02:55.824Z,4.28
2016-11-14T13:03:36.275Z,4.19
2016-11-14T13:04:16.866Z,4.16
2016-11-14T13:04:57.378Z,4.14
2016-11-14T13:05:37.993Z,4.13
2016-11-14T13:06:18.522Z,4.14
2016-11-14T13:06:59.071Z,4.24
2016-11-14T13:07:39.711Z,4.3
2016-11-14T13:08:20.175Z,4.17
2016-11-14T13:09:00.664Z,4.16
2016-11-14T13:09:41.162Z,4.2
2016-11-14T13:10:21.651Z,4.13
2016-11-14T13:11:02.192Z,4.13
2016-11-14T13:11:42.672Z,4.06
2016-11-14T13:12:23.211Z,4.04
2016-11-14T13:13:03.777Z,4.08
2016-11-14T13:13:44.392Z,4.14
2016-11-14T13:14:24.847Z,4.2
2016-11-14T13:15:05.320Z,4.13
2016-11-14T13:15:45.891Z,4.2
2016-11-14T13:16:26.449Z,4.2
2016-11-14T13:17:06.952Z,4.17
2016-11-14T13:17:47.447Z,4.14
2016-11-14T13:18:27.927Z,4.16
2016-11-14T13:19:10.546Z,4.2
2016-11-14T13:19:50.900Z,4.12
2016-11-14T13:20:31.358Z,4.12
2016-11-14T13:21:11.842Z,4.13
2016-11-14T13:21:52.329Z,4.16
2016-11-14T13:22:32.800Z,4.14
2016-11-14T13:23:13.305Z,4.23
2016-11-14T13:23:55.692Z,4.1
2016-11-14T13:24:36.182Z,4.16
2016-11-14T13:25:16.674Z,4.16
2016-11-14T13:25:57.193Z,4.16
2016-11-14T13:26:37.943Z,4.04
2016-11-14T13:27:18.496Z,4.14
2016-11-14T13:27:59.930Z,4.14
2016-11-14T13:28:40.514Z,4.12
2016-11-14T13:29:21.017Z,3.99
2016-11-14T13:30:01.521Z,4.12
2016-11-14T13:30:42.043Z,4.14
2016-11-14T13:31:22.531Z,4.13
2016-11-14T13:32:03.029Z,4.08
2016-11-14T13:32:43.494Z,4.08
2016-11-14T13:33:24.016Z,4.05
2016-11-14T13:34:04.518Z,4.1
2016-11-14T13:34:45.008Z,4.02
2016-11-14T13:35:25.498Z,4.06
2016-11-14T13:36:06.001Z,4.05
2016-11-14T13:36:48.190Z,4.06
2016-11-14T13:37:28.980Z,4.08
2016-11-14T13:38:09.494Z,4.08
2016-11-14T13:38:49.982Z,4.04
2016-11-14T13:39:30.640Z,4.02
2016-11-14T13:40:11.148Z,4.05
2016-11-14T13:40:51.654Z,4.1
2016-11-14T13:41:32.152Z,4.01
2016-11-14T13:42:12.695Z,4.01
2016-11-14T13:42:53.207Z,4.08
2016-11-14T13:43:33.952Z,4.02
2016-11-14T13:44:15.388Z,4.01
2016-11-14T13:44:57.511Z,3.99
2016-11-14T13:45:37.596Z,4.05
2016-11-14T13:46:18.152Z,4.05
2016-11-14T13:46:58.676Z,3.98
2016-11-14T13:47:40.353Z,4.01
2016-11-14T13:48:20.828Z,4.01
2016-11-14T13:49:01.345Z,3.98
2016-11-14T13:49:41.921Z,3.98
2016-11-14T13:50:22.399Z,4.04
2016-11-14T13:51:03.053Z,4.05
2016-11-14T13:51:43.658Z,4.05
2016-11-14T13:52:24.553Z,4.02
2016-11-14T13:53:05.200Z,4.05
2016-11-14T13:53:45.788Z,4.1
2016-11-14T13:54:26.277Z,3.99
2016-11-14T13:55:06.759Z,4.04
2016-11-14T13:55:47.272Z,3.98
2016-11-14T13:56:27.859Z,4.04
2016-11-14T13:57:08.364Z,3.99
2016-11-14T13:57:48.932Z,4.01
2016-11-14T13:58:29.447Z,4.05
2016-11-14T13:59:11.875Z,4.02
2016-11-14T13:59:52.719Z,3.99
2016-11-14T14:00:33.220Z,4.04
2016-11-14T14:01:16.100Z,4.04
2016-11-14T14:02:01.789Z,4.01
2016-11-14T14:02:45.209Z,4.01
2016-11-14T14:03:28.721Z,3.92
2016-11-14T14:04:14.171Z,3.98
2016-11-14T14:05:01.711Z,4.04
2016-11-14T14:05:48.694Z,3.95
2016-11-14T14:06:29.051Z,3.92
2016-11-14T14:07:15.841Z,3.94
2016-11-14T14:07:57.087Z,3.96
2016-11-14T14:08:37.833Z,3.98
2016-11-14T14:09:18.456Z,3.99
2016-11-14T14:09:58.930Z,4.04
2016-11-14T14:10:40.300Z,4.05
2016-11-14T14:11:20.755Z,4.02
2016-11-14T14:12:01.333Z,3.99
2016-11-14T14:12:41.847Z,4.02
2016-11-14T14:13:22.301Z,4.04
2016-11-14T14:14:02.776Z,4.04
2016-11-14T14:14:43.268Z,4.06
2016-11-14T14:15:23.840Z,4.04
2016-11-14T14:16:04.365Z,4.04
2016-11-14T14:16:44.819Z,4.01
2016-11-14T14:17:25.341Z,4.01
2016-11-14T14:18:05.858Z,4.01
2016-11-14T14:18:46.380Z,3.92
2016-11-14T14:19:26.865Z,3.95
2016-11-14T14:20:07.343Z,4.01
2016-11-14T14:20:47.826Z,3.96
2016-11-14T14:21:28.317Z,3.91
2016-11-14T14:22:08.967Z,3.96
2016-11-14T14:22:49.453Z,3.94
2016-11-14T14:23:29.992Z,3.88
2016-11-14T14:24:10.456Z,3.92
2016-11-14T14:24:51.079Z,3.91